createdAt,value
2022-07-27T00:01:58.719Z,99.90
2022-07-27T00:04:25.856Z,99.90
2022-07-27T00:06:53.148Z,99.90
2022-07-27T00:09:20.142Z,99.90
2022-07-27T00:11:48.229Z,99.90
2022-07-27T00:14:15.463Z,99.90
2022-07-27T00:16:42.924Z,99.90
2022-07-27T00:19:11.175Z,99.90
2022-07-27T00:21:44.438Z,99.90
2022-07-27T00:24:12.247Z,99.90
2022-07-27T00:26:39.265Z,99.90
2022-07-27T00:29:06.328Z,99.90
2022-07-27T00:31:33.460Z,99.90
2022-07-27T00:34:01.692Z,99.90
2022-07-27T00:36:28.757Z,99.90
2022-07-27T00:38:55.724Z,99.90
2022-07-27T00:41:22.741Z,99.90
2022-07-27T00:43:55.713Z,99.90
2022-07-27T00:46:24.569Z,99.90
2022-07-27T00:48:52.241Z,99.90
2022-07-27T00:51:21.670Z,99.90
2022-07-27T00:53:49.612Z,99.90
2022-07-27T00:56:16.741Z,99.90
2022-07-27T00:58:48.878Z,99.90
2022-07-27T01:01:19.005Z,99.90
2022-07-27T01:03:47.911Z,99.90
2022-07-27T01:06:16.281Z,99.90
2022-07-27T01:08:44.301Z,99.90
2022-07-27T01:11:12.147Z,99.90
2022-07-27T01:13:39.442Z,99.90
2022-07-27T01:16:07.546Z,99.90
2022-07-27T01:18:38.273Z,99.90
2022-07-27T01:21:08.941Z,99.90
2022-07-27T01:23:36.877Z,99.90
2022-07-27T01:26:05.888Z,99.90
2022-07-27T01:28:32.945Z,99.90
2022-07-27T01:31:01.224Z,99.90
2022-07-27T01:33:28.334Z,99.90
2022-07-27T01:35:58.573Z,99.90
2022-07-27T01:38:26.991Z,99.90
2022-07-27T01:40:56.182Z,99.90
2022-07-27T01:43:23.689Z,99.90
2022-07-27T01:45:50.873Z,99.90
2022-07-27T01:48:19.830Z,99.90
2022-07-27T01:50:47.969Z,99.90
2022-07-27T01:53:15.155Z,99.90
2022-07-27T01:55:43.551Z,99.90
2022-07-27T01:58:12.405Z,99.90
2022-07-27T02:00:40.689Z,99.90
2022-07-27T02:03:10.434Z,99.90
2022-07-27T02:05:39.177Z,99.90
2022-07-27T02:08:08.103Z,99.90
2022-07-27T02:10:36.815Z,99.90
2022-07-27T02:13:22.755Z,99.90
2022-07-27T02:15:54.916Z,99.90
2022-07-27T02:18:33.598Z,99.90
2022-07-27T02:21:06.722Z,99.90
2022-07-27T02:23:35.503Z,99.90
2022-07-27T02:26:04.202Z,99.90
2022-07-27T02:28:31.655Z,99.90
2022-07-27T02:30:58.750Z,99.90
2022-07-27T02:33:25.744Z,99.90
2022-07-27T02:35:53.707Z,99.90
2022-07-27T02:38:20.775Z,99.90
2022-07-27T02:40:47.927Z,99.90
2022-07-27T02:43:15.073Z,99.90
2022-07-27T02:45:42.073Z,99.90
2022-07-27T02:48:09.007Z,99.90
2022-07-27T02:50:38.103Z,99.90
2022-07-27T02:53:05.105Z,99.90
2022-07-27T02:55:32.131Z,99.90
2022-07-27T02:57:59.111Z,99.90
2022-07-27T03:00:26.435Z,99.90
2022-07-27T03:02:53.396Z,99.90
2022-07-27T03:05:20.483Z,99.90
2022-07-27T03:07:48.550Z,99.90
2022-07-27T03:10:15.554Z,99.90
2022-07-27T03:12:44.260Z,99.90
2022-07-27T03:15:11.633Z,99.90
2022-07-27T03:17:38.833Z,99.90
2022-07-27T03:20:08.772Z,99.90
2022-07-27T03:22:37.940Z,99.90
2022-07-27T03:25:05.895Z,99.90
2022-07-27T03:27:32.882Z,99.90
2022-07-27T03:29:59.911Z,99.90
2022-07-27T03:32:26.918Z,99.90
2022-07-27T03:34:53.965Z,99.90
2022-07-27T03:37:21.013Z,99.90
2022-07-27T03:39:48.091Z,99.90
2022-07-27T03:42:15.161Z,99.90
2022-07-27T03:44:42.206Z,99.90
2022-07-27T03:47:09.215Z,99.90
2022-07-27T03:49:36.324Z,99.90
2022-07-27T03:52:03.597Z,99.90
2022-07-27T03:54:30.811Z,99.90
2022-07-27T03:56:57.836Z,99.90
2022-07-27T03:59:27.166Z,99.90
2022-07-27T04:01:54.883Z,99.90
2022-07-27T04:04:21.941Z,99.90
2022-07-27T04:06:48.903Z,99.90
2022-07-27T04:09:17.212Z,99.90
2022-07-27T04:11:50.941Z,99.90
2022-07-27T04:14:18.952Z,99.90
2022-07-27T04:16:46.986Z,99.90
2022-07-27T04:19:14.491Z,99.90
2022-07-27T04:21:41.840Z,99.90
2022-07-27T04:24:09.307Z,99.90
2022-07-27T04:26:36.943Z,99.90
2022-07-27T04:29:04.335Z,99.90
2022-07-27T04:31:31.839Z,99.90
2022-07-27T04:33:58.838Z,99.90
2022-07-27T04:36:25.945Z,99.90
2022-07-27T04:38:52.880Z,99.90
2022-07-27T04:41:19.842Z,99.90
2022-07-27T04:43:47.040Z,99.90
2022-07-27T04:46:15.743Z,99.90
2022-07-27T04:48:49.444Z,99.90
2022-07-27T04:51:18.090Z,99.90
2022-07-27T04:53:54.006Z,99.90
2022-07-27T04:56:27.198Z,99.90
2022-07-27T04:58:55.609Z,99.90
2022-07-27T05:01:23.343Z,99.90
2022-07-27T05:03:50.558Z,99.90
2022-07-27T05:06:17.875Z,99.90
2022-07-27T05:08:44.990Z,99.90
2022-07-27T05:11:12.121Z,99.90
2022-07-27T05:13:42.237Z,99.90
2022-07-27T05:16:11.645Z,99.90
2022-07-27T05:18:39.728Z,99.90
2022-07-27T05:21:08.378Z,99.90
2022-07-27T05:23:36.428Z,99.90
2022-07-27T05:26:03.692Z,99.90
2022-07-27T05:28:30.701Z,99.90
2022-07-27T05:30:58.993Z,99.90
2022-07-27T05:33:26.104Z,99.90
2022-07-27T05:35:53.145Z,99.90
2022-07-27T05:38:20.076Z,99.90
2022-07-27T05:40:47.545Z,99.90
2022-07-27T05:43:14.625Z,99.90
2022-07-27T05:45:41.692Z,99.90
2022-07-27T05:48:08.812Z,99.90
2022-07-27T05:50:35.899Z,99.90
2022-07-27T05:53:03.680Z,99.90
2022-07-27T05:55:30.648Z,99.90
2022-07-27T05:57:57.797Z,99.90
2022-07-27T06:00:24.954Z,99.90
2022-07-27T06:02:51.934Z,99.90
2022-07-27T06:05:21.379Z,99.90
2022-07-27T06:08:00.918Z,99.90
2022-07-27T06:10:33.921Z,99.90
2022-07-27T06:13:03.977Z,99.90
2022-07-27T06:15:32.548Z,99.90
2022-07-27T06:17:59.599Z,99.90
2022-07-27T06:20:27.331Z,99.90
2022-07-27T06:23:00.355Z,99.90
2022-07-27T06:25:34.150Z,99.90
2022-07-27T06:28:04.434Z,99.90
2022-07-27T06:30:31.882Z,99.90
2022-07-27T06:32:59.200Z,99.90
2022-07-27T06:35:27.103Z,99.90
2022-07-27T06:37:54.187Z,99.90
2022-07-27T06:40:21.657Z,99.90
2022-07-27T06:42:48.691Z,99.90
2022-07-27T06:45:16.507Z,99.90
2022-07-27T06:47:49.739Z,99.90
2022-07-27T06:50:23.524Z,99.90
2022-07-27T06:52:50.719Z,99.90
2022-07-27T06:55:17.904Z,99.90
2022-07-27T06:57:46.520Z,99.90
2022-07-27T07:00:15.215Z,99.90
2022-07-27T07:03:03.078Z,99.90
2022-07-27T07:05:32.195Z,99.90
2022-07-27T07:07:59.261Z,99.90
2022-07-27T07:10:27.699Z,99.90
2022-07-27T07:12:58.242Z,99.90
2022-07-27T07:15:26.514Z,99.90
2022-07-27T07:17:54.778Z,99.90
2022-07-27T07:20:22.219Z,99.90
2022-07-27T07:22:50.600Z,99.90
2022-07-27T07:25:18.050Z,99.90
2022-07-27T07:27:45.090Z,99.90
2022-07-27T07:30:13.006Z,99.90
2022-07-27T07:32:40.177Z,99.90
2022-07-27T07:35:08.204Z,99.90
2022-07-27T07:37:35.170Z,99.90
2022-07-27T07:40:32.155Z,99.90
2022-07-27T07:42:56.491Z,99.90
2022-07-27T07:45:25.030Z,99.90
2022-07-27T07:47:55.140Z,99.90
2022-07-27T07:50:23.301Z,99.90
2022-07-27T07:52:52.950Z,99.90
2022-07-27T07:55:22.808Z,99.90
2022-07-27T07:57:50.744Z,99.90
2022-07-27T08:00:19.353Z,99.90
2022-07-27T08:02:48.809Z,99.90
2022-07-27T08:05:16.588Z,99.90
2022-07-27T08:07:45.040Z,99.90
2022-07-27T08:10:14.935Z,99.90
2022-07-27T08:12:45.587Z,99.90
2022-07-27T08:15:14.837Z,99.90
2022-07-27T08:17:45.625Z,99.90
2022-07-27T08:20:14.580Z,99.90
2022-07-27T08:22:42.276Z,99.90
2022-07-27T08:25:12.844Z,99.90
2022-07-27T08:27:40.952Z,99.90
2022-07-27T08:30:10.557Z,99.90
2022-07-27T08:32:59.863Z,99.90
2022-07-27T08:35:28.742Z,99.90
2022-07-27T08:37:56.255Z,99.90
2022-07-27T08:43:13.265Z,99.90
2022-07-27T08:45:41.823Z,99.90
2022-07-27T08:48:14.303Z,99.90
2022-07-27T08:50:42.747Z,99.90
2022-07-27T08:53:13.059Z,99.90
2022-07-27T08:55:43.917Z,99.90
2022-07-27T08:58:13.906Z,99.90
2022-07-27T09:00:48.283Z,99.90
2022-07-27T09:03:20.040Z,99.90
2022-07-27T09:05:56.287Z,99.90
2022-07-27T09:08:30.905Z,99.90
2022-07-27T09:11:00.270Z,99.90
2022-07-27T09:13:34.243Z,99.90
2022-07-27T09:16:18.171Z,99.90
2022-07-27T09:18:46.335Z,99.90
2022-07-27T09:21:22.971Z,99.90
2022-07-27T09:24:17.986Z,99.90
2022-07-27T09:27:03.781Z,99.90
2022-07-27T09:29:36.329Z,99.90
2022-07-27T09:32:15.747Z,99.90
2022-07-27T09:34:44.056Z,99.90
2022-07-27T09:37:12.326Z,99.90
2022-07-27T09:39:39.487Z,99.90
2022-07-27T09:42:08.183Z,99.90
2022-07-27T09:44:42.465Z,99.90
2022-07-27T09:47:29.689Z,99.90
2022-07-27T09:50:17.249Z,99.90
2022-07-27T09:52:45.378Z,99.90
2022-07-27T09:55:12.752Z,99.90
2022-07-27T09:57:58.108Z,99.90
2022-07-27T10:00:27.053Z,99.90
2022-07-27T10:02:55.532Z,99.90
2022-07-27T10:05:23.756Z,99.90
2022-07-27T10:07:53.597Z,99.90
2022-07-27T10:10:22.839Z,99.90
2022-07-27T10:12:54.703Z,99.90
2022-07-27T10:15:23.165Z,99.90
2022-07-27T10:17:57.888Z,99.90
2022-07-27T10:20:25.537Z,99.90
2022-07-27T10:23:01.135Z,99.90
2022-07-27T10:25:37.284Z,99.90
2022-07-27T10:28:17.479Z,99.90
2022-07-27T10:30:49.417Z,99.90
2022-07-27T10:33:42.901Z,99.90
2022-07-27T10:36:38.892Z,99.90
2022-07-27T10:39:07.701Z,99.90
2022-07-27T10:41:40.226Z,99.90
2022-07-27T10:44:18.833Z,99.90
2022-07-27T10:46:52.333Z,99.90
2022-07-27T10:49:24.741Z,99.90
2022-07-27T10:51:55.892Z,99.90
2022-07-27T10:54:36.649Z,99.90
2022-07-27T10:57:06.921Z,99.90
2022-07-27T11:02:42.730Z,99.90
2022-07-27T11:05:53.844Z,99.90
2022-07-27T11:10:48.788Z,99.90
2022-07-27T11:13:19.494Z,99.90
2022-07-27T11:16:15.764Z,99.90
2022-07-27T11:19:04.835Z,99.90
2022-07-27T11:21:38.109Z,99.90
2022-07-27T11:24:15.250Z,99.90
2022-07-27T11:26:49.517Z,99.90
2022-07-27T11:29:19.504Z,99.90
2022-07-27T11:31:55.906Z,99.90
2022-07-27T11:34:33.740Z,99.90
2022-07-27T11:37:03.576Z,99.90
2022-07-27T11:42:23.433Z,99.90
2022-07-27T11:44:52.952Z,99.90
2022-07-27T11:47:24.416Z,99.90
2022-07-27T11:49:52.133Z,99.90
2022-07-27T11:52:19.400Z,99.90
2022-07-27T11:54:52.790Z,99.90
2022-07-27T11:57:20.806Z,99.90
2022-07-27T11:59:48.668Z,99.90
2022-07-27T12:02:19.914Z,99.90
2022-07-27T12:04:50.360Z,99.90
2022-07-27T12:07:29.550Z,99.90
2022-07-27T12:10:02.045Z,99.90
2022-07-27T12:12:31.897Z,99.90
2022-07-27T12:15:16.303Z,99.90
2022-07-27T12:17:57.013Z,99.90
2022-07-27T12:20:34.210Z,99.90
2022-07-27T12:23:06.801Z,99.90
2022-07-27T12:25:35.107Z,99.90
2022-07-27T12:28:13.432Z,99.90
2022-07-27T12:30:51.932Z,99.90
2022-07-27T12:33:37.317Z,99.90
2022-07-27T12:36:07.172Z,99.90
2022-07-27T12:38:51.182Z,99.90
2022-07-27T12:41:30.874Z,99.90
2022-07-27T12:44:12.852Z,99.90
2022-07-27T12:47:16.862Z,99.90
2022-07-27T12:49:46.541Z,99.90
2022-07-27T12:52:13.674Z,99.90
2022-07-27T12:54:40.690Z,99.90
2022-07-27T12:57:07.599Z,99.90
2022-07-27T12:59:34.536Z,99.90
2022-07-27T13:02:01.673Z,99.90
2022-07-27T13:04:28.698Z,99.90
2022-07-27T13:06:55.685Z,99.90
2022-07-27T13:09:22.648Z,99.90
2022-07-27T13:11:49.620Z,99.90
2022-07-27T13:14:16.583Z,99.90
2022-07-27T13:16:43.594Z,99.90
2022-07-27T13:19:11.501Z,99.90
2022-07-27T13:21:38.755Z,99.90
2022-07-27T13:24:09.987Z,99.90
2022-07-27T13:26:37.847Z,99.90
2022-07-27T13:29:05.101Z,99.90
2022-07-27T13:31:32.462Z,99.90
2022-07-27T13:34:00.233Z,99.90
2022-07-27T13:36:27.416Z,99.90
2022-07-27T13:38:54.479Z,99.90
2022-07-27T13:41:22.236Z,99.90
2022-07-27T13:43:49.192Z,99.90
2022-07-27T13:46:16.501Z,99.90
2022-07-27T13:48:43.643Z,99.90
2022-07-27T13:51:10.668Z,99.90
2022-07-27T13:53:37.585Z,99.90
2022-07-27T13:56:07.305Z,99.90
2022-07-27T13:58:35.178Z,99.90
2022-07-27T14:01:07.100Z,99.90
2022-07-27T14:03:34.694Z,99.90
2022-07-27T14:06:01.651Z,99.90
2022-07-27T14:08:28.851Z,99.90
2022-07-27T14:10:55.833Z,99.90
2022-07-27T14:13:24.807Z,99.90
2022-07-27T14:15:54.073Z,99.90
2022-07-27T14:18:32.423Z,99.90
2022-07-27T14:21:02.404Z,99.90
2022-07-27T14:23:30.216Z,99.90
2022-07-27T14:25:59.148Z,99.90
2022-07-27T14:28:28.287Z,99.90
2022-07-27T14:30:57.098Z,99.90
2022-07-27T14:33:25.864Z,99.90
2022-07-27T14:36:00.165Z,99.90
2022-07-27T14:38:30.728Z,99.90
2022-07-27T14:41:03.423Z,99.90
2022-07-27T14:43:31.034Z,99.90
2022-07-27T14:45:58.490Z,99.90
2022-07-27T14:48:42.662Z,99.90
2022-07-27T14:51:12.434Z,99.90
2022-07-27T14:53:39.584Z,99.90
2022-07-27T14:56:06.552Z,99.90
2022-07-27T14:58:33.846Z,99.90
2022-07-27T15:01:01.013Z,99.90
2022-07-27T15:03:28.131Z,99.90
2022-07-27T15:05:55.083Z,99.90
2022-07-27T15:08:22.592Z,99.90
2022-07-27T15:10:49.630Z,99.90
2022-07-27T15:13:17.889Z,99.90
2022-07-27T15:15:48.302Z,99.90
2022-07-27T15:18:16.162Z,99.90
2022-07-27T15:20:43.167Z,99.90
2022-07-27T15:23:10.094Z,99.90
2022-07-27T15:25:37.348Z,99.90
2022-07-27T15:28:04.660Z,99.90
2022-07-27T15:30:37.902Z,99.90
2022-07-27T15:33:06.102Z,99.90
2022-07-27T15:35:33.147Z,99.90
2022-07-27T15:38:00.136Z,99.90
2022-07-27T15:40:39.210Z,99.80
2022-07-27T15:43:15.305Z,99.60
2022-07-27T15:45:45.711Z,99.90
2022-07-27T15:48:13.622Z,99.90
2022-07-27T15:50:44.617Z,99.70
2022-07-27T15:53:12.155Z,99.20
2022-07-27T15:55:39.259Z,99.60
2022-07-27T15:58:06.937Z,99.90
2022-07-27T16:00:40.679Z,98.30
2022-07-27T16:03:13.017Z,99.00
2022-07-27T16:05:44.445Z,99.60
2022-07-27T16:08:11.759Z,99.40
2022-07-27T16:10:40.952Z,99.80
2022-07-27T16:13:10.345Z,98.50
2022-07-27T16:15:58.266Z,99.40
2022-07-27T16:18:26.378Z,98.60
2022-07-27T16:20:53.826Z,98.70
2022-07-27T16:23:28.331Z,99.10
2022-07-27T16:26:06.771Z,98.50
2022-07-27T16:28:40.802Z,98.90
2022-07-27T16:31:11.303Z,98.90
2022-07-27T16:33:38.702Z,97.80
2022-07-27T16:36:09.482Z,99.60
2022-07-27T16:38:40.344Z,98.30
2022-07-27T16:41:21.261Z,98.60
2022-07-27T16:43:49.758Z,97.80
2022-07-27T16:46:17.718Z,97.70
2022-07-27T16:48:45.312Z,97.80
2022-07-27T16:51:16.178Z,97.60
2022-07-27T16:53:46.152Z,98.10
2022-07-27T16:56:13.680Z,98.10
2022-07-27T16:58:41.569Z,99.10
2022-07-27T17:01:09.495Z,97.10
2022-07-27T17:03:37.816Z,97.30
2022-07-27T17:06:07.159Z,97.10
2022-07-27T17:08:36.215Z,98.00
2022-07-27T17:11:05.366Z,97.60
2022-07-27T17:13:37.060Z,96.40
2022-07-27T17:16:09.363Z,96.70
2022-07-27T17:18:40.298Z,97.00
2022-07-27T17:21:12.501Z,96.00
2022-07-27T17:23:41.901Z,96.00
2022-07-27T17:26:10.199Z,96.20
2022-07-27T17:28:39.630Z,96.70
2022-07-27T17:31:12.621Z,96.50
2022-07-27T17:33:40.877Z,96.00
2022-07-27T17:36:14.721Z,96.00
2022-07-27T17:38:47.264Z,95.60
2022-07-27T17:41:21.912Z,96.40
2022-07-27T17:43:52.031Z,95.70
2022-07-27T17:46:19.050Z,95.40
2022-07-27T17:48:46.105Z,95.80
2022-07-27T17:51:13.153Z,95.10
2022-07-27T17:53:40.092Z,95.50
2022-07-27T17:56:08.432Z,95.50
2022-07-27T17:58:35.655Z,96.10
2022-07-27T18:01:02.803Z,95.50
2022-07-27T18:03:29.825Z,95.30
2022-07-27T18:05:56.987Z,96.40
2022-07-27T18:08:24.583Z,95.40
2022-07-27T18:10:51.998Z,95.70
2022-07-27T18:13:19.703Z,95.50
2022-07-27T18:15:54.155Z,95.70
2022-07-27T18:18:27.209Z,96.10
2022-07-27T18:20:56.442Z,97.00
2022-07-27T18:23:27.935Z,97.30
2022-07-27T18:25:55.563Z,97.60
2022-07-27T18:28:23.450Z,98.10
2022-07-27T18:30:52.835Z,98.70
2022-07-27T18:33:21.027Z,98.60
2022-07-27T18:35:48.749Z,98.60
2022-07-27T18:38:16.765Z,98.50
2022-07-27T18:40:46.732Z,98.70
2022-07-27T18:43:16.577Z,99.10
2022-07-27T18:45:44.107Z,99.80
2022-07-27T18:48:11.186Z,99.90
2022-07-27T18:50:41.694Z,99.90
2022-07-27T18:53:09.427Z,99.90
2022-07-27T18:55:37.140Z,99.90
2022-07-27T18:58:04.565Z,99.90
2022-07-27T19:00:32.090Z,99.90
2022-07-27T19:02:59.671Z,99.90
2022-07-27T19:05:32.341Z,99.90
2022-07-27T19:08:13.522Z,99.90
2022-07-27T19:10:44.763Z,99.90
2022-07-27T19:13:12.860Z,99.90
2022-07-27T19:15:40.278Z,99.90
2022-07-27T19:18:07.629Z,99.90
2022-07-27T19:20:36.406Z,99.90
2022-07-27T19:23:07.414Z,99.90
2022-07-27T19:25:34.731Z,99.90
2022-07-27T19:28:03.720Z,99.90
2022-07-27T19:30:31.259Z,99.90
2022-07-27T19:32:58.537Z,99.90
2022-07-27T19:35:25.624Z,99.90
2022-07-27T19:37:52.651Z,99.90
2022-07-27T19:40:43.308Z,99.90
2022-07-27T19:43:07.444Z,99.90
2022-07-27T19:45:36.359Z,99.90
2022-07-27T19:48:05.512Z,99.90
2022-07-27T19:50:32.961Z,99.90
2022-07-27T19:53:00.986Z,99.90
2022-07-27T19:55:28.044Z,99.90
2022-07-27T19:57:55.034Z,99.90
2022-07-27T20:00:22.384Z,99.90
2022-07-27T20:02:49.472Z,99.90
2022-07-27T20:05:16.581Z,99.90
2022-07-27T20:07:43.587Z,99.90
2022-07-27T20:10:11.123Z,99.90
2022-07-27T20:12:38.480Z,99.90
2022-07-27T20:15:06.686Z,99.90
2022-07-27T20:17:37.001Z,99.90
2022-07-27T20:20:08.593Z,99.90
2022-07-27T20:22:35.551Z,99.90
2022-07-27T20:25:03.085Z,99.90
2022-07-27T20:27:30.127Z,99.90
2022-07-27T20:29:57.128Z,99.90
2022-07-27T20:32:24.239Z,99.90
2022-07-27T20:34:51.352Z,99.90
2022-07-27T20:37:18.343Z,99.90
2022-07-27T20:39:45.360Z,99.90
2022-07-27T20:42:12.276Z,99.90
2022-07-27T20:44:39.391Z,99.90
2022-07-27T20:47:08.038Z,99.90
2022-07-27T20:49:35.487Z,99.90
2022-07-27T20:52:02.869Z,99.90
2022-07-27T20:54:30.449Z,99.90
2022-07-27T20:56:57.589Z,99.90
2022-07-27T20:59:24.803Z,99.90
2022-07-27T21:01:52.570Z,99.90
2022-07-27T21:04:20.391Z,99.90
2022-07-27T21:06:50.756Z,99.90
2022-07-27T21:09:18.764Z,99.90
2022-07-27T21:11:46.056Z,99.90
2022-07-27T21:14:13.079Z,99.90
2022-07-27T21:16:40.289Z,99.90
2022-07-27T21:19:07.653Z,99.90
2022-07-27T21:21:34.661Z,99.90
2022-07-27T21:24:18.382Z,99.90
2022-07-27T21:26:51.905Z,99.90
2022-07-27T21:29:20.567Z,99.90
2022-07-27T21:31:50.162Z,99.90
2022-07-27T21:34:19.979Z,99.90
2022-07-27T21:36:48.546Z,99.90
2022-07-27T21:39:18.131Z,99.90
2022-07-27T21:41:45.850Z,99.90
2022-07-27T21:44:13.350Z,99.90
2022-07-27T21:46:40.657Z,99.90
2022-07-27T21:49:08.215Z,99.90
2022-07-27T21:51:35.920Z,99.90
2022-07-27T21:54:02.978Z,99.90
2022-07-27T21:56:30.085Z,99.90
2022-07-27T21:58:57.468Z,99.90
2022-07-27T22:01:24.522Z,99.90
2022-07-27T22:03:51.622Z,99.90
2022-07-27T22:06:18.956Z,99.90
2022-07-27T22:08:48.823Z,99.90
2022-07-27T22:11:15.776Z,99.90
2022-07-27T22:13:42.743Z,99.90
2022-07-27T22:16:12.497Z,99.90
2022-07-27T22:18:39.785Z,99.90
2022-07-27T22:21:06.879Z,99.90
2022-07-27T22:23:33.861Z,99.90
2022-07-27T22:26:01.017Z,99.90
2022-07-27T22:28:27.989Z,99.90
2022-07-27T22:31:15.569Z,99.90
2022-07-27T22:33:44.314Z,99.90
2022-07-27T22:36:12.209Z,99.90
2022-07-27T22:38:39.571Z,99.90
2022-07-27T22:41:06.773Z,99.90
2022-07-27T22:43:33.956Z,99.90
2022-07-27T22:46:03.819Z,99.90
2022-07-27T22:48:31.019Z,99.90
2022-07-27T22:50:57.962Z,99.90
2022-07-27T22:53:24.960Z,99.90
2022-07-27T22:55:51.980Z,99.90
2022-07-27T22:58:18.893Z,99.90
2022-07-27T23:00:45.868Z,99.90
2022-07-27T23:03:12.849Z,99.90
2022-07-27T23:05:39.911Z,99.90
2022-07-27T23:08:06.887Z,99.90
2022-07-27T23:10:46.291Z,99.90
2022-07-27T23:13:18.803Z,99.90
2022-07-27T23:15:46.779Z,99.90
2022-07-27T23:18:14.234Z,99.90
2022-07-27T23:20:41.507Z,99.90
2022-07-27T23:23:12.403Z,99.90
2022-07-27T23:25:48.313Z,99.90
2022-07-27T23:28:16.797Z,99.90
2022-07-27T23:30:44.266Z,99.90
2022-07-27T23:33:11.463Z,99.90
2022-07-27T23:35:38.431Z,99.90
2022-07-27T23:38:05.433Z,99.90
2022-07-27T23:40:32.429Z,99.90
2022-07-27T23:42:59.505Z,99.90
2022-07-27T23:45:28.171Z,99.90
2022-07-27T23:47:55.320Z,99.90
2022-07-27T23:50:22.582Z,99.90
2022-07-27T23:52:49.559Z,99.90
2022-07-27T23:55:16.723Z,99.90
2022-07-27T23:57:45.479Z,99.90
